Time;durP1;ratioP1;P1;durP2;ratioP2;P2;SDS_P1;SDS_P2;PMS_P1;PMS_P2;Temp;Humidity;BMP_temperature;BMP_pressure;BME280_temperature;BME280_humidity;BME280_pressure;Samples;Min_cycle;Max_cycle;Signal;HPM_P1;HPM_P2
2023/08/03 00:02:27;;;;;;;2.30;1.60;;;;;;;16.52;84.17;98134.70;105455;1257;61065;-21
2023/08/03 00:04:55;;;;;;;2.40;2.00;;;;;;;16.49;83.36;98139.08;105544;1257;77130;-21
2023/08/03 00:07:23;;;;;;;2.80;2.00;;;;;;;16.24;83.28;98144.56;105430;1254;78475;-22
2023/08/03 00:09:52;;;;;;;2.70;2.00;;;;;;;15.88;84.87;98148.95;105568;1257;74902;-22
2023/08/03 00:12:22;;;;;;;2.80;1.40;;;;;;;15.60;86.95;98156.68;105567;1257;64188;-21
2023/08/03 00:14:50;;;;;;;3.00;1.80;;;;;;;16.00;87.07;98152.27;105632;1259;63914;-21
2023/08/03 00:17:17;;;;;;;3.80;1.90;;;;;;;16.50;85.40;98150.20;105569;1257;73083;-21
2023/08/03 00:19:45;;;;;;;4.20;3.50;;;;;;;16.52;84.28;98149.33;105532;1257;77300;-21
2023/08/03 00:22:13;;;;;;;4.00;3.20;;;;;;;16.35;83.86;98146.73;105595;1257;72671;-22
2023/08/03 00:24:41;;;;;;;4.00;3.40;;;;;;;16.08;83.95;98149.55;105570;1259;61186;-23
2023/08/03 00:27:09;;;;;;;1.30;1.10;;;;;;;15.86;83.91;98153.52;105610;1255;62477;-23
2023/08/03 00:29:37;;;;;;;1.90;1.40;;;;;;;16.21;83.96;98154.03;105573;1257;75155;-23
2023/08/03 00:32:06;;;;;;;2.60;1.80;;;;;;;16.61;82.44;98146.64;105593;1257;75754;-23
2023/08/03 00:34:34;;;;;;;2.80;2.30;;;;;;;16.56;81.97;98138.58;105623;1257;75175;-24
2023/08/03 00:37:02;;;;;;;3.40;3.00;;;;;;;16.33;82.21;98143.86;105580;1257;63997;-23
2023/08/03 00:39:30;;;;;;;3.00;1.80;;;;;;;16.04;82.67;98139.80;105669;1256;61854;-23
2023/08/03 00:41:58;;;;;;;1.30;1.00;;;;;;;15.78;83.55;98141.54;105544;1262;73891;-23
2023/08/03 00:44:26;;;;;;;3.10;1.20;;;;;;;16.10;83.71;98140.56;105512;1261;76668;-23
2023/08/03 00:46:54;;;;;;;2.20;1.30;;;;;;;16.51;82.34;98131.30;105452;1259;76640;-23
2023/08/03 00:49:27;;;;;;;1.90;1.60;;;;;;;16.48;81.36;98128.63;105294;1256;62551;-23
2023/08/03 00:51:56;;;;;;;2.40;1.90;;;;;;;16.21;81.69;98130.92;105374;1259;62493;-23
2023/08/03 00:54:24;;;;;;;2.60;2.10;;;;;;;15.91;81.92;98131.59;105659;1257;75496;-23
2023/08/03 00:56:53;;;;;;;2.80;2.10;;;;;;;15.63;82.94;98128.70;105609;1259;77186;-23
2023/08/03 00:59:21;;;;;;;2.60;2.30;;;;;;;15.93;83.30;98128.21;105593;1257;74579;-23
2023/08/03 01:01:49;;;;;;;7.00;5.60;;;;;;;16.32;82.34;98132.14;105547;1257;61491;-23
2023/08/03 01:04:17;;;;;;;9.00;7.80;;;;;;;16.27;82.22;98126.90;105477;1255;63928;-23
2023/08/03 01:06:45;;;;;;;10.40;8.20;;;;;;;16.01;82.70;98129.95;105563;1257;73081;-23
2023/08/03 01:09:13;;;;;;;11.20;6.30;;;;;;;15.72;83.87;98128.41;105587;1256;75718;-23
2023/08/03 01:11:41;;;;;;;5.50;4.00;;;;;;;15.49;84.83;98132.52;105481;1257;72935;-23
2023/08/03 01:14:10;;;;;;;5.80;4.10;;;;;;;15.86;84.63;98132.54;105445;1257;62712;-23
2023/08/03 01:16:38;;;;;;;8.60;6.00;;;;;;;16.28;83.46;98129.36;105487;1257;61471;-23
2023/08/03 01:19:06;;;;;;;7.10;6.40;;;;;;;16.29;82.62;98125.44;105409;1263;75541;-23
2023/08/03 01:21:34;;;;;;;5.80;5.20;;;;;;;16.08;82.49;98123.37;105358;1263;76818;-23
2023/08/03 01:24:01;;;;;;;12.90;5.40;;;;;;;15.78;83.10;98123.02;105362;1257;74101;-23
2023/08/03 01:26:29;;;;;;;2.60;2.10;;;;;;;15.53;83.72;98126.02;105493;1257;63078;-23
2023/08/03 01:28:58;;;;;;;1.90;1.70;;;;;;;15.85;83.90;98124.25;105238;1256;61451;-23
2023/08/03 01:31:25;;;;;;;1.80;1.50;;;;;;;16.26;82.15;98123.27;105583;1262;74426;-23
2023/08/03 01:33:53;;;;;;;2.10;1.70;;;;;;;16.23;81.75;98125.38;105510;1256;74411;-23
2023/08/03 01:36:21;;;;;;;2.50;2.00;;;;;;;16.00;81.70;98124.60;105129;1260;72699;-23
2023/08/03 01:38:54;;;;;;;3.30;1.90;;;;;;;15.70;82.31;98123.95;105512;1257;63017;-23
2023/08/03 01:41:23;;;;;;;1.60;1.40;;;;;;;15.43;83.03;98128.13;105329;1266;63867;-23
2023/08/03 01:44:18;;;;;;;2.00;1.60;;;;;;;15.75;83.65;98126.45;105182;1256;75274;-23
2023/08/03 01:46:46;;;;;;;6.30;3.70;;;;;;;16.20;81.96;98122.29;105428;1261;76646;-23
2023/08/03 01:49:14;;;;;;;8.00;5.70;;;;;;;16.11;81.59;98125.77;105367;1259;75208;-23
2023/08/03 01:51:42;;;;;;;7.60;6.30;;;;;;;15.86;81.81;98123.73;105509;1259;64212;-23
2023/08/03 01:54:11;;;;;;;7.50;3.50;;;;;;;15.57;82.31;98126.79;105616;1259;62461;-23
2023/08/03 01:56:41;;;;;;;2.90;1.60;;;;;;;15.31;83.01;98128.98;105439;1257;77008;-23
2023/08/03 01:59:10;;;;;;;1.50;1.30;;;;;;;15.62;83.09;98127.64;105286;1257;76790;-23
2023/08/03 02:01:38;;;;;;;4.90;3.40;;;;;;;16.02;81.18;98131.02;105433;1262;73606;-24
2023/08/03 02:04:06;;;;;;;7.00;5.40;;;;;;;15.98;80.68;98127.29;105465;1259;62513;-24
2023/08/03 02:06:37;;;;;;;8.30;6.00;;;;;;;15.69;81.24;98124.98;105283;1257;61102;-24
2023/08/03 02:09:05;;;;;;;9.20;6.50;;;;;;;15.40;82.03;98130.01;105387;1258;75555;-23
2023/08/03 02:11:34;;;;;;;7.30;3.20;;;;;;;15.11;83.03;98133.16;105675;1259;76388;-23
2023/08/03 02:14:03;;;;;;;5.30;3.40;;;;;;;15.38;83.65;98140.55;105653;1257;75206;-23
2023/08/03 02:16:32;;;;;;;6.10;3.00;;;;;;;15.77;82.02;98139.95;105358;1260;63982;-23
2023/08/03 02:19:00;;;;;;;3.70;2.90;;;;;;;15.73;81.41;98143.16;105208;1264;62756;-23
2023/08/03 02:21:28;;;;;;;6.00;3.70;;;;;;;15.48;81.43;98148.10;105469;1257;75785;-23
2023/08/03 02:23:56;;;;;;;5.30;3.40;;;;;;;15.12;82.62;98148.78;105507;1257;73201;-23
2023/08/03 02:26:24;;;;;;;4.30;2.10;;;;;;;14.75;84.80;98149.58;105637;1257;72771;-23
2023/08/03 02:28:51;;;;;;;3.30;2.60;;;;;;;15.04;85.33;98154.34;105517;1257;61974;-23
2023/08/03 02:31:20;;;;;;;5.10;2.50;;;;;;;15.36;83.69;98154.54;105577;1257;62481;-23
2023/08/03 02:33:48;;;;;;;9.20;3.80;;;;;;;15.31;83.02;98154.17;105559;1257;74452;-23
2023/08/03 02:36:19;;;;;;;6.40;3.30;;;;;;;15.12;83.21;98154.15;105535;1257;76517;-23
2023/08/03 02:38:47;;;;;;;7.00;4.20;;;;;;;14.89;83.11;98159.08;105468;1259;72693;-23
2023/08/03 02:41:15;;;;;;;4.60;2.00;;;;;;;14.63;84.56;98161.54;105593;1257;61260;-23
2023/08/03 02:43:43;;;;;;;5.30;2.40;;;;;;;14.98;84.77;98166.70;105459;1257;61473;-23
2023/08/03 02:46:12;;;;;;;9.60;3.30;;;;;;;15.43;83.29;98169.73;105663;1259;75956;-23
2023/08/03 02:48:40;;;;;;;4.80;3.80;;;;;;;15.42;82.46;98171.54;105654;1257;75722;-23
2023/08/03 02:51:08;;;;;;;4.70;2.80;;;;;;;15.21;82.64;98176.44;105491;1259;72704;-23
2023/08/03 02:53:36;;;;;;;3.20;2.80;;;;;;;14.96;82.66;98173.32;105615;1257;61275;-23
2023/08/03 02:56:04;;;;;;;3.90;1.30;;;;;;;14.74;83.60;98174.06;105598;1259;61144;-23
2023/08/03 02:58:33;;;;;;;2.20;1.80;;;;;;;15.12;83.68;98179.92;105590;1261;76353;-23
2023/08/03 03:01:04;;;;;;;2.20;1.50;;;;;;;15.56;82.40;98179.87;105665;1257;75617;-23
2023/08/03 03:03:32;;;;;;;5.90;2.20;;;;;;;15.56;81.59;98181.60;105620;1257;75835;-23
2023/08/03 03:06:00;;;;;;;5.20;3.20;;;;;;;15.39;81.72;98188.29;105601;1260;62507;-23
2023/08/03 03:08:29;;;;;;;7.90;3.80;;;;;;;15.20;82.35;98190.67;105625;1257;61866;-23
2023/08/03 03:10:57;;;;;;;2.10;1.70;;;;;;;15.12;83.18;98190.60;105505;1259;76403;-23
2023/08/03 03:13:25;;;;;;;7.00;2.40;;;;;;;15.70;83.13;98187.87;105356;1257;75763;-21
2023/08/03 03:15:53;;;;;;;5.10;2.50;;;;;;;16.43;81.18;98187.96;105650;1257;74196;-23
2023/08/03 03:18:22;;;;;;;4.30;2.40;;;;;;;16.78;79.40;98184.39;105614;1257;61183;-23
2023/08/03 03:20:51;;;;;;;3.10;2.60;;;;;;;16.89;78.31;98179.52;105298;1259;62249;-23
2023/08/03 03:23:19;;;;;;;3.80;3.00;;;;;;;16.92;78.05;98177.27;105310;1260;73158;-24
2023/08/03 03:25:46;;;;;;;2.30;1.40;;;;;;;17.03;78.16;98174.73;105342;1260;73638;-23
2023/08/03 03:28:15;;;;;;;3.30;1.30;;;;;;;17.74;77.33;98174.60;105424;1261;72702;-23
2023/08/03 03:30:43;;;;;;;5.00;1.40;;;;;;;18.53;74.69;98170.45;105547;1258;61137;-23
2023/08/03 03:33:11;;;;;;;1.80;1.40;;;;;;;18.84;72.78;98168.98;105665;1257;62543;-23
2023/08/03 03:35:39;;;;;;;10.30;1.60;;;;;;;18.89;72.23;98165.67;105595;1259;73896;-23
2023/08/03 03:38:08;;;;;;;4.40;1.90;;;;;;;18.87;72.19;98166.80;105557;1262;74524;-23
2023/08/03 03:40:36;;;;;;;4.30;2.30;;;;;;;18.82;71.80;98166.43;105584;1257;72684;-23
2023/08/03 03:43:04;;;;;;;4.10;1.50;;;;;;;18.82;72.26;98168.87;105275;1259;64004;-23
2023/08/03 03:45:32;;;;;;;7.80;1.90;;;;;;;19.38;72.49;98164.13;105407;1255;61771;-23
2023/08/03 03:48:00;;;;;;;3.60;1.60;;;;;;;20.10;70.22;98169.20;105505;1263;76277;-23
2023/08/03 03:50:29;;;;;;;5.10;1.90;;;;;;;20.30;68.97;98178.71;105600;1260;75748;-23
2023/08/03 03:52:58;;;;;;;3.40;2.20;;;;;;;20.17;68.28;98177.39;105618;1259;74116;-23
2023/08/03 03:55:27;;;;;;;3.90;3.00;;;;;;;19.82;69.05;98177.42;105581;1257;62518;-23
2023/08/03 03:57:57;;;;;;;3.60;3.00;;;;;;;19.42;69.18;98175.98;105595;1260;61330;-23
2023/08/03 04:00:26;;;;;;;4.90;1.90;;;;;;;19.06;71.67;98178.10;105542;1262;74592;-23
2023/08/03 04:02:54;;;;;;;4.80;4.30;;;;;;;19.45;71.69;98178.46;105610;1257;76703;-24
2023/08/03 04:05:23;;;;;;;7.10;2.90;;;;;;;19.83;70.64;98174.86;105671;1259;75351;-23
2023/08/03 04:07:51;;;;;;;4.00;2.50;;;;;;;19.98;70.03;98175.45;105544;1258;62273;-23
2023/08/03 04:10:20;;;;;;;3.10;2.30;;;;;;;20.10;69.85;98176.80;105628;1257;61391;-23
2023/08/03 04:12:48;;;;;;;2.60;1.70;;;;;;;20.24;69.43;98177.36;105564;1257;73859;-23
2023/08/03 04:15:19;;;;;;;2.60;2.10;;;;;;;20.32;69.10;98178.78;105559;1260;75543;-23
2023/08/03 04:17:48;;;;;;;3.30;2.20;;;;;;;20.37;68.91;98179.98;105589;1259;72720;-23
2023/08/03 04:20:21;;;;;;;3.60;1.80;;;;;;;20.32;68.56;98180.21;105573;1255;63525;-23
2023/08/03 04:22:49;;;;;;;3.00;1.70;;;;;;;20.63;68.40;98179.14;105557;1255;62132;-23
2023/08/03 04:25:19;;;;;;;2.80;2.20;;;;;;;20.87;67.51;98178.50;105397;1259;76758;-23
2023/08/03 04:27:54;;;;;;;6.10;2.80;;;;;;;20.66;67.09;98179.21;105319;1260;77053;-23
2023/08/03 04:30:27;;;;;;;3.40;3.00;;;;;;;20.68;68.30;98183.19;105290;1259;75063;-23
2023/08/03 04:32:55;;;;;;;3.80;2.80;;;;;;;20.79;68.52;98180.81;105185;1262;61135;-23
2023/08/03 04:35:25;;;;;;;4.20;2.20;;;;;;;20.87;67.43;98182.73;105324;1257;61069;-23
2023/08/03 04:38:00;;;;;;;4.80;2.70;;;;;;;20.38;67.74;98186.27;105247;1262;73919;-23
2023/08/03 04:40:30;;;;;;;6.50;2.80;;;;;;;20.38;69.59;98184.86;105132;1257;76555;-24
2023/08/03 04:42:58;;;;;;;1.50;1.40;;;;;;;20.56;69.15;98187.71;105305;1259;76670;-23
2023/08/03 04:45:27;;;;;;;5.00;1.50;;;;;;;21.26;68.18;98185.26;105295;1260;61577;-23
2023/08/03 04:47:57;;;;;;;2.90;1.80;;;;;;;22.03;66.47;98183.64;105363;1259;61162;-23
2023/08/03 04:50:25;;;;;;;3.50;2.30;;;;;;;22.10;63.94;98187.03;105220;1260;75185;-23
2023/08/03 04:52:53;;;;;;;6.20;2.20;;;;;;;21.85;65.01;98187.51;105246;1257;75516;-24
2023/08/03 04:55:22;;;;;;;5.30;2.70;;;;;;;21.57;65.58;98193.58;105236;1261;75559;-23
2023/08/03 04:57:50;;;;;;;4.30;2.40;;;;;;;21.35;66.54;98189.63;105238;1260;61161;-23
2023/08/03 05:04:05;;;;;;;3.00;1.70;;;;;;;21.55;67.19;98180.83;105580;1260;77157;-23
2023/08/03 05:06:33;;;;;;;1.90;1.40;;;;;;;21.62;67.41;98186.03;105279;1260;74661;-23
2023/08/03 05:09:01;;;;;;;5.40;1.80;;;;;;;21.65;67.66;98184.79;105244;1260;73101;-23
2023/08/03 05:11:29;;;;;;;4.00;1.70;;;;;;;21.67;67.46;98184.33;105247;1260;61164;-23
2023/08/03 05:13:57;;;;;;;4.00;1.10;;;;;;;21.78;67.77;98182.97;105247;1259;62473;-23
2023/08/03 05:16:26;;;;;;;1.90;1.50;;;;;;;22.43;66.54;98184.45;105146;1261;77306;-36
2023/08/03 05:18:54;;;;;;;2.20;1.50;;;;;;;22.74;63.85;98183.36;105203;1268;74687;-23
2023/08/03 05:21:22;;;;;;;2.40;1.70;;;;;;;23.02;65.13;98182.84;105287;1260;72863;-23
2023/08/03 05:23:50;;;;;;;3.00;1.70;;;;;;;23.27;64.50;98185.34;105216;1261;61111;-23
2023/08/03 05:26:18;;;;;;;4.60;1.70;;;;;;;23.42;63.84;98181.73;105291;1260;62667;-23
2023/08/03 05:28:45;;;;;;;5.10;1.50;;;;;;;23.49;63.84;98180.32;105577;1259;77768;-25
2023/08/03 05:31:13;;;;;;;2.80;1.40;;;;;;;23.53;62.78;98184.59;105336;1259;73506;-24
2023/08/03 05:33:41;;;;;;;4.90;1.50;;;;;;;23.50;62.59;98189.91;105251;1259;75446;-23
2023/08/03 05:36:09;;;;;;;3.40;1.50;;;;;;;23.48;63.21;98189.85;105200;1258;62554;-22
2023/08/03 05:38:37;;;;;;;3.40;2.00;;;;;;;23.39;62.65;98191.84;105540;1260;62932;-23
2023/08/03 05:41:07;;;;;;;4.20;1.50;;;;;;;23.08;62.94;98195.91;105302;1259;77791;-23
2023/08/03 05:43:35;;;;;;;2.60;1.50;;;;;;;22.46;64.45;98191.83;105122;1265;73437;-23
2023/08/03 05:46:03;;;;;;;1.90;1.70;;;;;;;22.43;65.06;98189.77;105320;1259;73657;-23
2023/08/03 05:48:31;;;;;;;5.00;2.10;;;;;;;22.18;65.97;98186.78;105223;1262;62212;-23
2023/08/03 05:50:59;;;;;;;1.80;1.60;;;;;;;22.05;67.38;98192.84;105321;1259;62477;-23
2023/08/03 05:53:26;;;;;;;41.90;17.20;;;;;;;22.00;67.05;98193.91;105331;1259;73812;-23
2023/08/03 05:55:54;;;;;;;8.50;3.30;;;;;;;21.85;68.06;98197.58;105482;1262;76798;-23
2023/08/03 05:58:28;;;;;;;9.90;5.20;;;;;;;21.79;68.39;98191.23;105653;1270;76693;-23
2023/08/03 06:00:56;;;;;;;7.10;3.00;;;;;;;22.46;68.32;98194.94;105564;1260;61247;-25
2023/08/03 06:03:24;;;;;;;2.10;1.80;;;;;;;22.87;65.64;98192.61;105243;1259;61097;-24
2023/08/03 06:05:51;;;;;;;6.70;2.50;;;;;;;22.77;65.48;98187.54;105322;1259;73903;-22
2023/08/03 06:08:24;;;;;;;3.20;2.00;;;;;;;22.54;65.56;98182.08;105319;1259;74467;-22
2023/08/03 06:10:56;;;;;;;7.00;2.40;;;;;;;22.29;65.94;98184.11;105207;1260;72710;-22
2023/08/03 06:13:45;;;;;;;6.40;2.60;;;;;;;22.25;67.37;98189.88;105494;1260;61701;-22
2023/08/03 06:16:14;;;;;;;2.60;1.70;;;;;;;22.21;67.12;98193.36;105251;1265;61179;-23
2023/08/03 06:18:48;;;;;;;3.40;2.10;;;;;;;22.14;66.93;98196.77;104891;1266;73954;-23
2023/08/03 06:21:16;;;;;;;9.70;3.10;;;;;;;21.91;67.98;98203.43;104897;1260;74472;-23
2023/08/03 06:23:46;;;;;;;12.80;3.90;;;;;;;21.80;69.01;98206.14;104956;1265;71431;-22
2023/08/03 06:26:16;;;;;;;3.10;1.90;;;;;;;21.95;68.83;98201.02;105012;1266;65637;-22
2023/08/03 06:28:44;;;;;;;4.00;1.90;;;;;;;22.48;67.08;98199.70;105106;1266;63232;-23
2023/08/03 06:31:12;;;;;;;4.70;2.40;;;;;;;22.90;64.95;98203.27;105097;1265;77737;-22
2023/08/03 06:33:40;;;;;;;13.60;2.10;;;;;;;22.99;65.03;98199.38;104974;1265;76571;-23
2023/08/03 06:43:53;;;;;;;2.30;1.90;;;;;;;23.06;64.66;98202.55;102660;1293;599443;-22
2023/08/03 06:46:22;;;;;;;5.20;1.90;;;;;;;22.98;64.26;98196.94;104754;1270;62367;-23
2023/08/03 06:48:50;;;;;;;5.00;2.50;;;;;;;22.93;63.89;98198.60;104799;1264;61163;-22
2023/08/03 06:51:19;;;;;;;5.50;2.00;;;;;;;22.83;63.86;98195.45;104794;1267;75045;-22
2023/08/03 06:53:47;;;;;;;5.90;1.70;;;;;;;22.78;63.82;98197.91;104809;1273;74483;-23
2023/08/03 06:56:17;;;;;;;2.40;1.90;;;;;;;23.06;65.24;98199.03;104350;1266;2805832;-22
2023/08/03 06:58:45;;;;;;;5.20;1.80;;;;;;;23.14;62.66;98195.20;104853;1263;61184;-22
2023/08/03 07:01:13;;;;;;;2.90;2.00;;;;;;;23.24;63.40;98196.94;105122;1263;61178;-22
2023/08/03 07:03:41;;;;;;;2.00;1.40;;;;;;;23.43;63.91;98196.08;105131;1263;63914;-22
2023/08/03 07:06:09;;;;;;;3.70;1.60;;;;;;;23.53;62.55;98196.40;104860;1271;75986;-23
2023/08/03 07:08:37;;;;;;;3.70;1.90;;;;;;;23.44;61.57;98198.75;105067;1263;76700;-22
2023/08/03 07:11:05;;;;;;;9.70;1.90;;;;;;;23.36;61.62;98201.64;105021;1266;75168;-22
2023/08/03 07:13:33;;;;;;;21.20;2.30;;;;;;;23.41;61.84;98196.07;105046;1268;62552;-22
2023/08/03 07:16:09;;;;;;;5.30;1.80;;;;;;;23.60;62.26;98194.00;105090;1265;62719;-22
2023/08/03 07:18:37;;;;;;;7.70;2.20;;;;;;;23.73;60.98;98196.69;105053;1268;75371;-22
2023/08/03 07:21:05;;;;;;;4.20;1.80;;;;;;;23.95;60.03;98199.08;104939;1263;76761;-22
2023/08/03 07:23:34;;;;;;;4.90;1.90;;;;;;;24.19;60.25;98198.22;104986;1263;73710;-23
2023/08/03 07:26:02;;;;;;;2.00;1.50;;;;;;;24.34;59.61;98197.88;104884;1263;61487;-23
2023/08/03 07:28:30;;;;;;;4.80;1.80;;;;;;;24.37;56.79;98195.48;104811;1263;61178;-22
2023/08/03 07:30:58;;;;;;;5.60;2.00;;;;;;;24.21;55.91;98192.61;104987;1267;76966;-22
2023/08/03 07:33:26;;;;;;;2.70;1.50;;;;;;;24.37;56.64;98196.81;104859;1266;76033;-22
2023/08/03 07:35:54;;;;;;;5.80;1.20;;;;;;;24.43;55.20;98196.46;104785;1266;75280;-22
2023/08/03 07:38:22;;;;;;;2.80;1.50;;;;;;;24.48;55.41;98197.14;104849;1266;62568;-22
2023/08/03 07:40:50;;;;;;;1.90;1.50;;;;;;;24.50;54.50;98197.65;104722;1271;63891;-23
2023/08/03 07:43:18;;;;;;;2.70;1.50;;;;;;;24.37;54.70;98192.83;104837;1271;75755;-22
2023/08/03 07:45:45;;;;;;;3.80;2.30;;;;;;;24.58;52.16;98191.98;104887;1270;78647;-23
2023/08/03 07:48:16;;;;;;;3.00;1.30;;;;;;;24.83;53.09;98191.73;104773;1270;76702;-22
2023/08/03 07:50:44;;;;;;;1.80;1.20;;;;;;;24.88;52.15;98192.52;104679;1271;61144;-23
2023/08/03 07:53:12;;;;;;;3.50;1.50;;;;;;;24.95;53.32;98191.56;105105;1261;62971;-22
2023/08/03 07:55:40;;;;;;;1.90;1.60;;;;;;;25.29;53.02;98190.15;105115;1268;75573;-23
2023/08/03 07:58:08;;;;;;;2.30;1.50;;;;;;;25.37;51.09;98190.10;105135;1267;75715;-23
2023/08/03 08:00:36;;;;;;;3.30;1.40;;;;;;;25.41;51.55;98191.67;105182;1268;76643;-23
2023/08/03 08:03:04;;;;;;;5.40;1.70;;;;;;;25.53;51.57;98186.64;104942;1263;61175;-23
2023/08/03 08:05:32;;;;;;;1.50;1.20;;;;;;;25.75;50.81;98187.69;105098;1266;61243;-23
2023/08/03 08:08:00;;;;;;;3.80;1.50;;;;;;;25.82;50.14;98187.84;104815;1268;75238;-23
2023/08/03 08:10:28;;;;;;;2.40;1.00;;;;;;;25.38;49.76;98191.39;104975;1263;74460;-23
2023/08/03 08:12:56;;;;;;;7.50;1.80;;;;;;;25.01;50.04;98191.98;104997;1261;71515;-23
2023/08/03 08:15:23;;;;;;;6.00;1.40;;;;;;;25.18;51.57;98192.59;105230;1268;61157;-23
2023/08/03 08:17:51;;;;;;;1.90;1.50;;;;;;;25.50;50.26;98187.46;104981;1263;61143;-23
2023/08/03 08:20:19;;;;;;;2.30;1.50;;;;;;;25.61;49.92;98188.63;105009;1261;74560;-23
2023/08/03 08:22:47;;;;;;;3.20;1.50;;;;;;;25.58;49.51;98184.30;105187;1268;76796;-23
2023/08/03 08:25:15;;;;;;;1.40;1.30;;;;;;;25.68;48.21;98188.72;104966;1268;76597;-23
2023/08/03 08:27:43;;;;;;;6.40;2.00;;;;;;;25.56;48.79;98189.88;105192;1263;62741;-23
2023/08/03 08:30:12;;;;;;;4.00;1.50;;;;;;;25.45;48.55;98195.41;105250;1266;61467;-23
2023/08/03 08:32:40;;;;;;;2.20;1.50;;;;;;;25.52;47.83;98196.80;105199;1262;77332;-23
2023/08/03 08:35:08;;;;;;;7.00;1.40;;;;;;;25.66;47.18;98193.00;105175;1266;74478;-23
2023/08/03 08:37:35;;;;;;;2.70;1.30;;;;;;;25.89;46.64;98187.93;105049;1266;74971;-23
2023/08/03 08:40:04;;;;;;;4.30;1.40;;;;;;;26.12;46.67;98181.61;105024;1262;62240;-23
2023/08/03 08:42:32;;;;;;;3.90;1.40;;;;;;;26.26;46.76;98178.17;104853;1262;61087;-22
2023/08/03 08:45:00;;;;;;;2.20;1.60;;;;;;;26.11;46.30;98181.11;104839;1270;72169;-22
2023/08/03 08:47:28;;;;;;;6.50;1.30;;;;;;;26.25;46.46;98183.77;105173;1262;78494;-22
2023/08/03 08:49:57;;;;;;;3.20;1.40;;;;;;;26.68;46.94;98177.44;105157;1267;75180;-22
2023/08/03 08:52:27;;;;;;;2.10;1.60;;;;;;;26.91;45.28;98173.30;105062;1260;61295;-22
2023/08/03 08:55:18;;;;;;;2.90;1.10;;;;;;;27.18;46.65;98181.54;105036;1261;61465;-22
2023/08/03 08:58:06;;;;;;;6.60;1.90;;;;;;;27.42;45.13;98181.23;105044;1268;76862;-22
2023/08/03 09:00:47;;;;;;;4.60;1.60;;;;;;;26.79;46.09;98179.95;105210;1267;74434;-22
2023/08/03 09:03:15;;;;;;;2.40;1.70;;;;;;;27.15;46.36;98180.65;104850;1263;72724;-22
2023/08/03 09:05:43;;;;;;;5.30;1.60;;;;;;;27.39;44.57;98174.10;104899;1263;62866;-24
2023/08/03 09:08:16;;;;;;;3.90;1.60;;;;;;;27.34;45.10;98180.55;105061;1263;61437;-23
2023/08/03 09:10:51;;;;;;;4.20;1.60;;;;;;;27.00;44.74;98179.19;105178;1260;75770;-21
2023/08/03 09:13:35;;;;;;;3.50;1.80;;;;;;;26.49;46.10;98178.38;105299;1258;74449;-22
2023/08/03 09:16:03;;;;;;;3.70;1.50;;;;;;;26.46;47.53;98179.14;105650;1261;75223;-22
2023/08/03 09:18:32;;;;;;;2.80;2.00;;;;;;;26.50;46.90;98183.88;105701;1259;61888;-23
2023/08/03 09:21:09;;;;;;;3.90;1.40;;;;;;;26.67;46.33;98186.02;105706;1253;61055;-23
2023/08/03 09:23:40;;;;;;;6.60;2.40;;;;;;;26.48;46.39;98188.02;105569;1254;75509;-24
2023/08/03 09:26:11;;;;;;;5.00;1.70;;;;;;;26.58;46.51;98184.55;105457;1259;75057;-23
2023/08/03 09:28:40;;;;;;;5.50;1.30;;;;;;;26.90;41.61;98181.04;105692;1259;71734;-22
2023/08/03 09:31:09;;;;;;;1.90;1.10;;;;;;;27.38;41.92;98182.48;105594;1257;61073;-23
2023/08/03 09:33:56;;;;;;;2.20;1.40;;;;;;;27.80;41.79;98173.52;105356;1263;61207;-23
2023/08/03 09:36:26;;;;;;;2.10;1.20;;;;;;;27.42;40.24;98178.98;105237;1257;73139;-23
2023/08/03 09:39:24;;;;;;;1.70;1.00;;;;;;;27.39;40.28;98178.27;105284;1262;72269;-23
2023/08/03 09:41:55;;;;;;;1.50;1.20;;;;;;;27.38;40.84;98175.86;105566;1253;75228;-23
2023/08/03 09:44:26;;;;;;;1.30;1.10;;;;;;;27.34;42.14;98176.31;105658;1256;62551;-23
2023/08/03 09:46:54;;;;;;;3.80;1.30;;;;;;;27.14;39.11;98175.20;105683;1258;61168;-23
2023/08/03 09:49:21;;;;;;;3.40;1.20;;;;;;;27.23;38.97;98174.58;105642;1260;73086;-23
2023/08/03 09:51:52;;;;;;;2.40;1.10;;;;;;;27.43;38.34;98169.27;105511;1255;75728;-23
2023/08/03 09:54:37;;;;;;;3.00;1.20;;;;;;;27.65;37.77;98170.77;105139;1256;72728;-23
2023/08/03 09:57:13;;;;;;;1.90;1.10;;;;;;;28.20;37.59;98169.54;105309;1258;61107;-24
2023/08/03 09:59:44;;;;;;;3.80;1.10;;;;;;;27.94;38.16;98169.42;105644;1259;61125;-23
2023/08/03 10:02:16;;;;;;;1.50;1.00;;;;;;;27.42;39.30;98172.58;105521;1254;73078;-23
2023/08/03 10:04:57;;;;;;;1.80;1.10;;;;;;;27.77;40.58;98164.41;105686;1254;74413;-23
2023/08/03 10:15:08;;;;;;;3.40;1.10;;;;;;;28.86;37.53;98168.73;102572;1292;600050;-22
2023/08/03 10:17:37;;;;;;;2.60;1.20;;;;;;;28.77;38.33;98169.05;104831;1267;61676;-22
2023/08/03 10:20:06;;;;;;;3.80;1.30;;;;;;;28.97;37.70;98167.95;104890;1266;61139;-22
2023/08/03 10:22:34;;;;;;;1.60;1.20;;;;;;;28.89;37.60;98169.81;104816;1266;72338;-22
2023/08/03 10:25:15;;;;;;;2.10;0.90;;;;;;;28.63;39.22;98171.70;104808;1270;77205;-22
2023/08/03 10:28:13;;;;;;;1.70;1.10;;;;;;;28.10;39.70;98166.34;102718;1262;2922324;-22
2023/08/03 10:31:00;;;;;;;1.70;1.10;;;;;;;28.73;39.75;98161.91;105198;1263;62810;-22
2023/08/03 10:33:46;;;;;;;2.40;0.90;;;;;;;28.71;38.59;98161.97;105040;1266;61139;-22
2023/08/03 10:36:30;;;;;;;2.50;1.20;;;;;;;28.12;38.62;98164.20;105070;1268;72325;-22
2023/08/03 10:39:03;;;;;;;6.80;1.20;;;;;;;28.62;39.65;98162.48;104862;1266;76541;-23
2023/08/03 10:41:36;;;;;;;1.20;1.10;;;;;;;28.93;38.25;98161.84;104789;1266;75416;-23
2023/08/03 10:44:14;;;;;;;3.60;1.20;;;;;;;29.01;38.63;98160.66;104844;1264;61527;-23
2023/08/03 10:46:53;;;;;;;1.60;0.90;;;;;;;28.82;37.89;98163.70;104809;1266;61909;-24
2023/08/03 10:49:24;;;;;;;1.60;1.20;;;;;;;28.94;36.90;98160.83;104929;1264;73087;-22
2023/08/03 10:52:17;;;;;;;1.70;1.10;;;;;;;28.56;36.79;98166.70;105084;1264;76744;-22
2023/08/03 10:54:46;;;;;;;2.90;1.00;;;;;;;28.08;38.23;98166.53;104844;1270;75233;-24
2023/08/03 11:03:20;;;;;;;2.60;1.60;;;;;;;27.86;38.01;98164.72;102726;1289;600278;-23
2023/08/03 11:05:54;;;;;;;2.30;1.30;;;;;;;28.46;36.87;98165.17;104889;1267;62525;-22
2023/08/03 11:08:22;;;;;;;1.60;1.40;;;;;;;28.72;36.72;98161.09;104885;1263;61444;-23
2023/08/03 11:10:50;;;;;;;3.20;1.10;;;;;;;28.46;36.70;98169.52;104923;1263;76149;-23
2023/08/03 11:13:18;;;;;;;2.70;1.00;;;;;;;28.23;37.95;98173.41;104943;1270;76782;-23
2023/08/03 11:15:47;;;;;;;2.00;1.20;;;;;;;28.34;37.28;98171.94;103895;1263;2594397;-24
2023/08/03 11:18:18;;;;;;;1.20;1.00;;;;;;;28.72;36.12;98169.89;104808;1263;61771;-24
2023/08/03 11:20:46;;;;;;;2.50;1.10;;;;;;;28.82;36.43;98172.01;104959;1263;61447;-23
2023/08/03 11:23:13;;;;;;;2.30;1.10;;;;;;;28.92;35.73;98173.71;105158;1263;73005;-22
2023/08/03 11:25:42;;;;;;;6.00;1.60;;;;;;;28.95;36.17;98170.52;105176;1268;76882;-23
2023/08/03 11:28:17;;;;;;;3.60;1.50;;;;;;;28.74;36.97;98181.95;105157;1269;74975;-23
2023/08/03 11:30:45;;;;;;;1.80;1.10;;;;;;;28.37;37.05;98182.05;104944;1263;62512;-24
2023/08/03 11:33:13;;;;;;;100.10;12.70;;;;;;;28.06;37.94;98178.23;105077;1263;61163;-23
2023/08/03 11:35:42;;;;;;;2.00;1.00;;;;;;;28.30;38.63;98181.40;104929;1268;75170;-23
2023/08/03 11:38:11;;;;;;;2.00;1.00;;;;;;;28.22;38.01;98178.80;104810;1270;73332;-23
2023/08/03 11:40:39;;;;;;;5.80;1.10;;;;;;;28.09;38.47;98173.40;104753;1270;73954;-23
2023/08/03 11:43:07;;;;;;;2.60;1.10;;;;;;;27.92;39.07;98172.66;104809;1268;61495;-23
2023/08/03 11:45:35;;;;;;;1.60;1.10;;;;;;;28.20;39.02;98171.37;104880;1262;61432;-23
2023/08/03 11:48:05;;;;;;;1.70;0.80;;;;;;;28.29;38.57;98170.42;104961;1263;73223;-23
2023/08/03 11:50:33;;;;;;;2.90;1.10;;;;;;;28.50;37.10;98170.96;104767;1273;75699;-23
2023/08/03 11:53:01;;;;;;;3.90;1.30;;;;;;;28.49;36.94;98165.19;104859;1269;74096;-23
2023/08/03 12:03:36;;;;;;;1.60;1.20;;;;;;;28.65;36.46;98160.23;102623;1294;600188;-22
2023/08/03 12:06:05;;;;;;;1.20;0.90;;;;;;;28.95;35.76;98153.38;104737;1267;61186;-24
2023/08/03 12:08:53;;;;;;;2.10;1.00;;;;;;;29.19;35.55;98136.90;104738;1267;61892;-23
2023/08/03 12:11:21;;;;;;;1.30;0.90;;;;;;;29.20;35.38;98144.23;104834;1270;75180;-23